Flugplatz Lübeck Blankensee

Bericht für EDHL

vom 17.08. um 06:20 UTC

variable Windrichtung mit 1 kt

Sichtweite 10 km oder mehr

gute Sicht, keine Wolken < 5000 ft, keine CB, keine Wettererscheinungen (CAVOK)

Temperatur 18.0°C

Taupunkt 16.0°C

Luftfeuchtigkeit 88%

Luftdruck 1015 hPa

EDHL 170620Z VRB01KT CAVOK 18/16 Q1015

Prognose für EDHL

vom 17.08. um 05:00 UTC

Zwischen 06:00 UTC und 08:00 UTC

variable Windrichtung mit 3 kt

Sichtweite 10 km oder mehr

aufgelockert bewölkt in 2500 ft


Zwischen 08:00 und 10:00 UTC übergehend zu

Wind 7 kt aus 300°

Sichtweite 10 km oder mehr

aufgelockert bewölkt in 2500 ft


Zwischen 11:00 UTC und 14:00 UTC zeitweise mit einer Wahrscheinlichkeit von 30%

Regenschauer

TAF EDHL 170500Z 1706/1715 VRB03KT 9999 SCT025 BECMG 1708/1710 30007KT PROB30 TEMPO 1711/1714 SHRA
Impressum